Roxanne — PG5302 — position and weather

sailwx.info

Track history (hours):
 
Tides and Currents Weather Stations Pressure Air Temp Water Temp Dewpoint Dewpoint Depression Visibility Wind Speed Wind Dir Waves Ship Positions

Roxanne

Last reported at 2015-Jul-29 16:12 UTC. Time now 2015-Aug-03 08:42 UTC.
Position N 37°44' E 023°34'.

Length 17 m.

Type: Sailing vessel. MMSI: 244100994.

Date/timePositionNaut miles runAvg speedWind from/ knotsBaromVisibWave heightAir tempDewpointWater temp
2015-Jul-29 16:12N 37°44' E 023°34'  
2015-Jul-24 07:07N 36°21' E 025°15'3 4.6
2015-Jul-24 06:33N 36°21' E 025°18'2 0.1
2015-Jul-23 14:07N 36°21' E 025°21'3 4.9
2015-Jul-23 13:33N 36°23' E 025°24'44 1.5
2015-Jul-22 08:33N 37°05' E 025°04'10 0.4
2015-Jul-21 05:21N 37°13' E 025°12'5 6.7
2015-Jul-21 04:33N 37°17' E 025°16'7 6.6
2015-Jul-21 03:33N 37°23' E 025°20'2 2.0
2015-Jul-21 02:31N 37°25' E 025°21'0 0.0
2015-Jul-21 01:31N 37°25' E 025°21'0 0.0
2015-Jul-21 00:25N 37°25' E 025°21'0 0.0
2015-Jul-20 23:28N 37°25' E 025°21'0 0.0
2015-Jul-20 22:31N 37°25' E 025°21'0 0.0
2015-Jul-20 21:31N 37°25' E 025°21'0 0.0
2015-Jul-20 20:28N 37°25' E 025°21'0 0.0
2015-Jul-20 19:28N 37°25' E 025°21'0 0.0
2015-Jul-20 18:31N 37°25' E 025°21'0 0.0
2015-Jul-20 17:22N 37°25' E 025°21'0 0.0
2015-Jul-20 16:13N 37°25' E 025°21'0 0.0
2015-Jul-20 15:16N 37°25' E 025°21'0 0.0
2015-Jul-20 14:25N 37°25' E 025°21'0 0.0
2015-Jul-20 13:25N 37°25' E 025°21'0 0.0
2015-Jul-20 12:32N 37°25' E 025°21'0 0.0
2015-Jul-20 11:30N 37°25' E 025°21'0 0.0
2015-Jul-20 10:32N 37°25' E 025°21'0 0.3
2015-Jul-20 09:33N 37°24' E 025°20'2 1.6
2015-Jul-20 08:33N 37°23' E 025°19'1 1.4
2015-Jul-20 07:33N 37°24' E 025°17'2 2.1
2015-Jul-20 06:33N 37°23' E 025°15'1 0.8
2015-Jul-20 05:25N 37°23' E 025°14'0 0.0
2015-Jul-20 04:17N 37°23' E 025°14'0 0.0
2015-Jul-20 03:26N 37°23' E 025°14'0 0.0
2015-Jul-20 02:24N 37°23' E 025°14'0 0.0
2015-Jul-20 01:24N 37°23' E 025°14'0 0.0
2015-Jul-20 00:33N 37°23' E 025°14'0 0.0
2015-Jul-19 23:30N 37°23' E 025°14'0 0.0
2015-Jul-19 22:30N 37°23' E 025°14'0 0.0
2015-Jul-19 21:30N 37°23' E 025°14'0 0.0
2015-Jul-19 20:33N 37°23' E 025°14'0 0.0
2015-Jul-19 19:30N 37°23' E 025°14'0 0.0
2015-Jul-19 18:33N 37°23' E 025°14'0 0.0
2015-Jul-19 17:33N 37°23' E 025°14'  
Track history (hours):
 
Tides and Currents Weather Stations Pressure Air Temp Water Temp Dewpoint Dewpoint Depression Visibility Wind Speed Wind Dir Waves Ship Positions

Roxanne

Last reported at 2015-Jul-29 16:12 UTC. Time now 2015-Aug-03 08:42 UTC.
Position N 37°44' E 023°34'.

Length 17 m.

Type: Sailing vessel. MMSI: 244100994.

Date/timePositionNaut miles runAvg speedWind from/ knotsBaromVisibWave heightAir tempDewpointWater temp
2015-Jul-29 16:12N 37°44' E 023°34'  
2015-Jul-24 07:07N 36°21' E 025°15'3 4.6
2015-Jul-24 06:33N 36°21' E 025°18'2 0.1
2015-Jul-23 14:07N 36°21' E 025°21'3 4.9
2015-Jul-23 13:33N 36°23' E 025°24'44 1.5
2015-Jul-22 08:33N 37°05' E 025°04'10 0.4
2015-Jul-21 05:21N 37°13' E 025°12'5 6.7
2015-Jul-21 04:33N 37°17' E 025°16'7 6.6
2015-Jul-21 03:33N 37°23' E 025°20'2 2.0
2015-Jul-21 02:31N 37°25' E 025°21'0 0.0
2015-Jul-21 01:31N 37°25' E 025°21'0 0.0
2015-Jul-21 00:25N 37°25' E 025°21'0 0.0
2015-Jul-20 23:28N 37°25' E 025°21'0 0.0
2015-Jul-20 22:31N 37°25' E 025°21'0 0.0
2015-Jul-20 21:31N 37°25' E 025°21'0 0.0
2015-Jul-20 20:28N 37°25' E 025°21'0 0.0
2015-Jul-20 19:28N 37°25' E 025°21'0 0.0
2015-Jul-20 18:31N 37°25' E 025°21'0 0.0
2015-Jul-20 17:22N 37°25' E 025°21'0 0.0
2015-Jul-20 16:13N 37°25' E 025°21'0 0.0
2015-Jul-20 15:16N 37°25' E 025°21'0 0.0
2015-Jul-20 14:25N 37°25' E 025°21'0 0.0
2015-Jul-20 13:25N 37°25' E 025°21'0 0.0
2015-Jul-20 12:32N 37°25' E 025°21'0 0.0
2015-Jul-20 11:30N 37°25' E 025°21'0 0.0
2015-Jul-20 10:32N 37°25' E 025°21'0 0.3
2015-Jul-20 09:33N 37°24' E 025°20'2 1.6
2015-Jul-20 08:33N 37°23' E 025°19'1 1.4
2015-Jul-20 07:33N 37°24' E 025°17'2 2.1
2015-Jul-20 06:33N 37°23' E 025°15'1 0.8
2015-Jul-20 05:25N 37°23' E 025°14'0 0.0
2015-Jul-20 04:17N 37°23' E 025°14'0 0.0
2015-Jul-20 03:26N 37°23' E 025°14'0 0.0
2015-Jul-20 02:24N 37°23' E 025°14'0 0.0
2015-Jul-20 01:24N 37°23' E 025°14'0 0.0
2015-Jul-20 00:33N 37°23' E 025°14'0 0.0
2015-Jul-19 23:30N 37°23' E 025°14'0 0.0
2015-Jul-19 22:30N 37°23' E 025°14'0 0.0
2015-Jul-19 21:30N 37°23' E 025°14'0 0.0
2015-Jul-19 20:33N 37°23' E 025°14'0 0.0
2015-Jul-19 19:30N 37°23' E 025°14'0 0.0
2015-Jul-19 18:33N 37°23' E 025°14'0 0.0
2015-Jul-19 17:33N 37°23' E 025°14'  

Dump ship's entire track history